createdAt,value
2023-01-29T00:00:02.584Z,102343.91
2023-01-29T00:02:28.848Z,102334.00
2023-01-29T00:04:58.904Z,102330.44
2023-01-29T00:07:25.586Z,102336.16
2023-01-29T00:09:52.664Z,102341.91
2023-01-29T00:12:19.103Z,102329.53
2023-01-29T00:14:45.367Z,102330.56
2023-01-29T00:17:11.674Z,102328.09
2023-01-29T00:19:37.943Z,102320.34
2023-01-29T00:22:04.635Z,102316.75
2023-01-29T00:24:30.992Z,102321.41
2023-01-29T00:26:58.354Z,102314.53
2023-01-29T00:29:24.666Z,102319.41
2023-01-29T00:31:51.022Z,102318.34
2023-01-29T00:34:17.373Z,102310.09
2023-01-29T00:36:45.655Z,102313.69
2023-01-29T00:39:11.948Z,102316.66
2023-01-29T00:41:57.055Z,102310.94
2023-01-29T00:44:42.138Z,102316.66
2023-01-29T00:47:28.576Z,102320.50
2023-01-29T00:49:55.253Z,102316.09
2023-01-29T00:52:24.563Z,102313.56
2023-01-29T00:54:52.037Z,102312.53
2023-01-29T00:57:18.361Z,102310.00
2023-01-29T00:59:44.629Z,102319.94
2023-01-29T01:02:31.854Z,102323.75
2023-01-29T01:05:00.544Z,102327.56
2023-01-29T01:07:26.809Z,102322.34
2023-01-29T01:10:12.096Z,102332.50
2023-01-29T01:12:39.057Z,102327.22
2023-01-29T01:15:05.484Z,102336.31
2023-01-29T01:17:31.866Z,102328.09
2023-01-29T01:19:58.385Z,102321.50
2023-01-29T01:22:24.742Z,102322.06
2023-01-29T01:24:51.031Z,102317.41
2023-01-29T01:27:19.514Z,102299.84
2023-01-29T01:29:46.865Z,102297.97
2023-01-29T01:32:13.343Z,102289.72
2023-01-29T01:34:39.838Z,102284.44
2023-01-29T01:37:06.113Z,102280.06
2023-01-29T01:39:32.335Z,102269.31
2023-01-29T01:41:58.642Z,102274.22
2023-01-29T01:44:43.653Z,102275.31
2023-01-29T01:47:10.087Z,102275.56
2023-01-29T01:49:36.418Z,102277.47
2023-01-29T01:52:03.083Z,102269.47
2023-01-29T01:54:31.601Z,102282.38
2023-01-29T01:57:04.899Z,102280.72
2023-01-29T01:59:32.767Z,102278.78
2023-01-29T02:01:59.074Z,102284.53
2023-01-29T02:04:45.243Z,102277.38
2023-01-29T02:07:32.331Z,102285.84
2023-01-29T02:10:01.363Z,102289.69
2023-01-29T02:12:31.210Z,102294.34
2023-01-29T02:14:57.547Z,102292.44
2023-01-29T02:17:24.120Z,102294.09
2023-01-29T02:19:57.541Z,102292.19
2023-01-29T02:22:35.233Z,102294.69
2023-01-29T02:25:09.495Z,102293.59
2023-01-29T02:27:54.640Z,102301.59
2023-01-29T02:30:36.347Z,102302.19
2023-01-29T02:33:09.336Z,102288.47
2023-01-29T02:35:42.797Z,102298.09
2023-01-29T02:38:20.843Z,102298.94
2023-01-29T02:41:08.197Z,102303.38
2023-01-29T02:43:44.241Z,102302.50
2023-01-29T02:46:10.945Z,102317.66
2023-01-29T02:48:50.472Z,102305.59
2023-01-29T02:51:19.888Z,102308.94
2023-01-29T02:53:50.374Z,102310.34
2023-01-29T02:56:19.149Z,102314.53
2023-01-29T02:58:47.625Z,102311.03
2023-01-29T03:01:17.667Z,102314.94
2023-01-29T03:03:47.605Z,102312.50
2023-01-29T03:06:28.419Z,102313.94
2023-01-29T03:09:16.791Z,102310.94
2023-01-29T03:11:46.255Z,102296.94
2023-01-29T03:14:14.811Z,102305.78
2023-01-29T03:16:45.796Z,102302.78
2023-01-29T03:19:16.137Z,102293.44
2023-01-29T03:22:00.503Z,102290.97
2023-01-29T03:24:52.136Z,102290.13
2023-01-29T03:27:39.744Z,102295.28
2023-01-29T03:30:26.083Z,102292.19
2023-01-29T03:32:53.626Z,102291.63
2023-01-29T03:35:33.358Z,102296.28
2023-01-29T03:38:00.483Z,102298.22
2023-01-29T03:40:27.243Z,102305.63
2023-01-29T03:42:53.708Z,102297.38
2023-01-29T03:45:34.293Z,102293.53
2023-01-29T03:48:00.688Z,102288.63
2023-01-29T03:50:29.677Z,102276.31
2023-01-29T03:53:15.346Z,102275.78
2023-01-29T03:55:55.273Z,102281.88
2023-01-29T03:58:53.847Z,102285.81
2023-01-29T04:01:23.063Z,102284.44
2023-01-29T04:03:53.586Z,102285.88
2023-01-29T04:06:32.142Z,102285.38
2023-01-29T04:08:58.445Z,102274.69
2023-01-29T04:11:25.150Z,102281.63
2023-01-29T04:13:52.093Z,102279.19
2023-01-29T04:16:23.194Z,102274.28
2023-01-29T04:18:49.630Z,102274.63
2023-01-29T04:21:16.320Z,102271.34
2023-01-29T04:23:42.736Z,102262.59
2023-01-29T04:26:29.566Z,102263.16
2023-01-29T04:29:04.758Z,102256.09
2023-01-29T04:31:34.516Z,102255.59
2023-01-29T04:34:03.725Z,102247.91
2023-01-29T04:36:49.014Z,102247.63
2023-01-29T04:39:30.219Z,102243.00
2023-01-29T04:42:06.752Z,102234.75
2023-01-29T04:44:43.776Z,102233.66
2023-01-29T04:47:10.093Z,102227.06
2023-01-29T04:49:44.934Z,102225.16
2023-01-29T04:52:31.921Z,102214.47
2023-01-29T04:55:07.911Z,102221.38
2023-01-29T04:57:46.930Z,102227.44
2023-01-29T05:00:17.995Z,102224.16
2023-01-29T05:02:45.012Z,102221.75
2023-01-29T05:05:13.509Z,102205.84
2023-01-29T05:07:41.661Z,102197.88
2023-01-29T05:10:09.017Z,102184.72
2023-01-29T05:12:36.821Z,102186.09
2023-01-29T05:15:05.333Z,102192.19
2023-01-29T05:17:31.641Z,102171.84
2023-01-29T05:19:57.956Z,102177.06
2023-01-29T05:22:24.336Z,102182.34
2023-01-29T05:24:50.946Z,102183.19
2023-01-29T05:27:37.286Z,102184.00
2023-01-29T05:30:04.228Z,102188.69
2023-01-29T05:32:30.534Z,102180.66
2023-01-29T05:34:56.851Z,102189.50
2023-01-29T05:37:23.268Z,102180.97
2023-01-29T05:39:49.515Z,102178.50
2023-01-29T05:42:15.978Z,102178.22
2023-01-29T05:44:42.610Z,102188.97
2023-01-29T05:47:08.929Z,102192.53
2023-01-29T05:49:36.726Z,102193.41
2023-01-29T05:52:04.207Z,102198.63
2023-01-29T05:54:31.188Z,102206.63
2023-01-29T05:56:57.438Z,102196.22
2023-01-29T05:59:23.727Z,102206.94
2023-01-29T06:01:50.161Z,102206.69
2023-01-29T06:04:16.449Z,102218.50
2023-01-29T06:06:42.936Z,102220.19
2023-01-29T06:09:10.531Z,102224.34
2023-01-29T06:11:36.950Z,102224.94
2023-01-29T06:14:03.223Z,102221.63
2023-01-29T06:16:29.598Z,102232.38
2023-01-29T06:18:56.077Z,102235.72
2023-01-29T06:21:22.425Z,102228.03
2023-01-29T06:23:49.087Z,102226.44
2023-01-29T06:26:16.081Z,102227.88
2023-01-29T06:28:45.265Z,102227.59
2023-01-29T06:31:28.437Z,102230.69
2023-01-29T06:33:58.189Z,102215.81
2023-01-29T06:36:24.497Z,102210.84
2023-01-29T06:38:50.931Z,102214.44
2023-01-29T06:41:18.415Z,102209.78
2023-01-29T06:43:45.161Z,102215.03
2023-01-29T06:46:11.411Z,102209.25
2023-01-29T06:48:37.692Z,102201.00
2023-01-29T06:51:05.142Z,102213.94
2023-01-29T06:53:32.132Z,102216.41
2023-01-29T06:55:58.398Z,102217.28
2023-01-29T06:58:24.856Z,102225.53
2023-01-29T07:00:51.333Z,102221.69
2023-01-29T07:03:17.689Z,102226.09
2023-01-29T07:05:49.679Z,102228.03
2023-01-29T07:08:18.513Z,102223.59
2023-01-29T07:10:45.365Z,102229.66
2023-01-29T07:13:11.659Z,102220.84
2023-01-29T07:15:38.069Z,102215.34
2023-01-29T07:18:05.498Z,102222.50
2023-01-29T07:20:31.925Z,102228.28
2023-01-29T07:22:58.270Z,102235.19
2023-01-29T07:25:25.155Z,102214.56
2023-01-29T07:27:51.489Z,102214.28
2023-01-29T07:30:18.419Z,102211.28
2023-01-29T07:32:44.890Z,102204.66
2023-01-29T07:35:11.123Z,102213.50
2023-01-29T07:37:37.372Z,102217.41
2023-01-29T07:40:06.339Z,102215.22
2023-01-29T07:42:32.625Z,102221.88
2023-01-29T07:44:58.954Z,102221.91
2023-01-29T07:47:25.267Z,102217.81
2023-01-29T07:49:51.640Z,102212.59
2023-01-29T07:52:20.780Z,102205.72
2023-01-29T07:54:48.236Z,102204.09
2023-01-29T07:57:15.119Z,102200.25
2023-01-29T07:59:43.031Z,102198.06
2023-01-29T08:02:10.014Z,102218.75
2023-01-29T08:04:36.335Z,102200.28
2023-01-29T08:07:07.097Z,102200.84
2023-01-29T08:09:33.392Z,102202.25
2023-01-29T08:11:59.814Z,102189.84
2023-01-29T08:14:26.282Z,102185.75
2023-01-29T08:16:52.608Z,102185.22
2023-01-29T08:19:19.047Z,102188.25
2023-01-29T08:21:45.309Z,102200.97
2023-01-29T08:24:11.742Z,102201.81
2023-01-29T08:26:37.967Z,102206.75
2023-01-29T08:29:04.254Z,102203.50
2023-01-29T08:31:30.545Z,102204.03
2023-01-29T08:33:56.993Z,102197.44
2023-01-29T08:36:23.263Z,102195.81
2023-01-29T08:38:49.676Z,102190.88
2023-01-29T08:41:15.953Z,102173.78
2023-01-29T08:43:42.240Z,102162.50
2023-01-29T08:46:09.021Z,102152.84
2023-01-29T08:48:35.344Z,102154.50
2023-01-29T08:51:02.453Z,102149.84
2023-01-29T08:53:28.795Z,102151.22
2023-01-29T08:55:55.199Z,102158.38
2023-01-29T08:58:21.475Z,102152.88
2023-01-29T09:00:47.788Z,102148.19
2023-01-29T09:03:14.257Z,102147.09
2023-01-29T09:05:40.960Z,102145.72
2023-01-29T09:08:08.027Z,102133.59
2023-01-29T09:10:35.878Z,102135.81
2023-01-29T09:13:02.546Z,102142.75
2023-01-29T09:15:28.948Z,102142.19
2023-01-29T09:17:55.375Z,102132.28
2023-01-29T09:20:21.787Z,102135.03
2023-01-29T09:22:49.283Z,102140.84
2023-01-29T09:25:15.891Z,102142.53
2023-01-29T09:27:42.783Z,102135.66
2023-01-29T09:30:09.381Z,102132.91
2023-01-29T09:35:22.504Z,102130.19
2023-01-29T09:37:49.432Z,102126.31
2023-01-29T09:40:45.419Z,102120.81
2023-01-29T09:43:18.492Z,102123.56
2023-01-29T09:46:05.391Z,102119.44
2023-01-29T09:48:34.011Z,102118.88
2023-01-29T09:51:02.825Z,102113.94
2023-01-29T09:53:35.140Z,102110.34
2023-01-29T09:56:05.644Z,102111.16
2023-01-29T09:58:34.462Z,102112.28
2023-01-29T10:01:08.492Z,102109.53
2023-01-29T10:03:43.825Z,102115.59
2023-01-29T10:06:23.962Z,102116.41
2023-01-29T10:09:05.535Z,102121.38
2023-01-29T10:11:41.837Z,102131.88
2023-01-29T10:14:19.771Z,102128.56
2023-01-29T10:17:03.040Z,102126.63
2023-01-29T10:19:38.276Z,102129.97
2023-01-29T10:22:10.651Z,102123.31
2023-01-29T10:24:55.804Z,102117.78
2023-01-29T10:27:22.641Z,102117.25
2023-01-29T10:29:52.537Z,102116.13
2023-01-29T10:32:20.871Z,102111.44
2023-01-29T10:34:53.803Z,102113.66
2023-01-29T10:37:26.397Z,102106.47
2023-01-29T10:39:52.864Z,102098.72
2023-01-29T10:42:34.556Z,102095.66
2023-01-29T10:45:03.534Z,102084.59
2023-01-29T10:47:30.516Z,102081.59
2023-01-29T10:50:16.505Z,102080.47
2023-01-29T10:53:02.724Z,102071.59
2023-01-29T10:55:39.773Z,102065.81
2023-01-29T10:58:18.272Z,102060.56
2023-01-29T11:00:45.536Z,102064.38
2023-01-29T11:03:27.871Z,102064.34
2023-01-29T11:05:54.812Z,102067.09
2023-01-29T11:08:24.777Z,102055.19
2023-01-29T11:11:04.345Z,102062.63
2023-01-29T11:13:37.906Z,102060.44
2023-01-29T11:16:05.691Z,102055.44
2023-01-29T11:18:48.494Z,102058.47
2023-01-29T11:21:15.358Z,102041.59
2023-01-29T11:23:41.661Z,102042.69
2023-01-29T11:26:11.897Z,102039.94
2023-01-29T11:28:42.567Z,102031.34
2023-01-29T11:31:27.362Z,102030.25
2023-01-29T11:34:02.124Z,102018.91
2023-01-29T11:36:38.174Z,102012.25
2023-01-29T11:39:15.866Z,102008.94
2023-01-29T11:41:43.482Z,102001.75
2023-01-29T11:44:19.980Z,101989.56
2023-01-29T11:46:47.908Z,101988.75
2023-01-29T11:49:30.031Z,101992.59
2023-01-29T11:51:57.164Z,101987.34
2023-01-29T11:54:26.026Z,101981.25
2023-01-29T11:56:52.884Z,101977.69
2023-01-29T11:59:28.844Z,101980.16
2023-01-29T12:01:55.483Z,101976.25
2023-01-29T12:04:23.706Z,101961.31
2023-01-29T12:06:53.291Z,101957.16
2023-01-29T12:09:21.212Z,101952.16
2023-01-29T12:11:47.955Z,101954.66
2023-01-29T12:14:24.400Z,101947.69
2023-01-29T12:17:01.385Z,101938.28
2023-01-29T12:19:43.853Z,101933.59
2023-01-29T12:22:27.229Z,101923.63
2023-01-29T12:24:58.961Z,101908.97
2023-01-29T12:27:46.953Z,101906.19
2023-01-29T12:30:26.969Z,101894.59
2023-01-29T12:32:56.481Z,101887.94
2023-01-29T12:35:33.281Z,101889.59
2023-01-29T12:38:03.031Z,101882.13
2023-01-29T12:40:32.175Z,101881.28
2023-01-29T12:43:01.746Z,101880.19
2023-01-29T12:45:29.134Z,101876.59
2023-01-29T12:47:57.398Z,101877.13
2023-01-29T12:50:26.790Z,101870.78
2023-01-29T12:52:57.819Z,101866.06
2023-01-29T12:55:29.495Z,101867.19
2023-01-29T12:57:55.744Z,101859.72
2023-01-29T13:00:24.176Z,101872.44
2023-01-29T13:03:05.035Z,101866.06
2023-01-29T13:05:39.183Z,101863.81
2023-01-29T13:08:31.641Z,101848.06
2023-01-29T13:11:01.495Z,101854.13
2023-01-29T13:13:32.895Z,101852.19
2023-01-29T13:16:01.554Z,101861.84
2023-01-29T13:18:30.920Z,101855.22
2023-01-29T13:20:57.232Z,101857.38
2023-01-29T13:23:29.887Z,101853.22
2023-01-29T13:25:57.025Z,101852.91
2023-01-29T13:28:25.277Z,101856.22
2023-01-29T13:31:10.302Z,101846.00
2023-01-29T13:33:37.534Z,101844.31
2023-01-29T13:36:04.782Z,101845.13
2023-01-29T13:38:33.299Z,101841.84
2023-01-29T13:41:04.572Z,101846.25
2023-01-29T13:43:35.263Z,101844.63
2023-01-29T13:46:07.188Z,101839.06
2023-01-29T13:48:37.003Z,101834.38
2023-01-29T13:51:04.663Z,101829.38
2023-01-29T13:53:41.801Z,101833.50
2023-01-29T13:56:26.794Z,101831.84
2023-01-29T13:58:53.885Z,101832.97
2023-01-29T14:01:40.130Z,101832.41
2023-01-29T14:04:18.720Z,101832.72
2023-01-29T14:06:46.992Z,101827.50
2023-01-29T14:09:32.383Z,101828.06
2023-01-29T14:11:59.074Z,101823.91
2023-01-29T14:14:44.410Z,101813.97
2023-01-29T14:17:11.894Z,101802.38
2023-01-29T14:19:38.639Z,101810.13
2023-01-29T14:22:05.143Z,101812.09
2023-01-29T14:24:31.616Z,101817.09
2023-01-29T14:26:57.928Z,101809.09
2023-01-29T14:29:34.850Z,101807.44
2023-01-29T14:32:07.231Z,101814.09
2023-01-29T14:34:42.790Z,101812.13
2023-01-29T14:37:15.318Z,101808.53
2023-01-29T14:39:45.576Z,101808.84
2023-01-29T14:42:18.531Z,101805.53
2023-01-29T14:44:44.846Z,101798.34
2023-01-29T14:47:22.480Z,101804.19
2023-01-29T14:49:48.713Z,101801.69
2023-01-29T14:52:15.936Z,101795.63
2023-01-29T14:54:45.609Z,101797.88
2023-01-29T14:57:13.523Z,101789.84
2023-01-29T15:00:00.195Z,101785.13
2023-01-29T15:02:33.169Z,101786.25
2023-01-29T15:05:00.460Z,101781.84
2023-01-29T15:07:47.314Z,101785.44
2023-01-29T15:10:22.677Z,101792.91
2023-01-29T15:12:56.912Z,101784.91
2023-01-29T15:15:32.675Z,101781.34
2023-01-29T15:18:02.186Z,101777.44
2023-01-29T15:20:31.083Z,101776.63
2023-01-29T15:22:57.504Z,101783.25
2023-01-29T15:25:24.303Z,101777.72
2023-01-29T15:27:50.987Z,101776.06
2023-01-29T15:30:19.383Z,101774.44
2023-01-29T15:32:46.477Z,101783.53
2023-01-29T15:35:27.817Z,101775.84
2023-01-29T15:38:05.021Z,101776.66
2023-01-29T15:40:31.342Z,101771.13
2023-01-29T15:42:57.775Z,101766.44
2023-01-29T15:45:27.240Z,101773.91
2023-01-29T15:48:00.714Z,101771.97
2023-01-29T15:50:28.508Z,101768.38
2023-01-29T15:52:55.948Z,101771.66
2023-01-29T15:55:23.761Z,101768.06
2023-01-29T15:57:50.208Z,101755.88
2023-01-29T16:00:24.726Z,101749.25
2023-01-29T16:02:51.174Z,101756.44
2023-01-29T16:05:23.610Z,101754.50
2023-01-29T16:07:51.074Z,101748.16
2023-01-29T16:10:18.839Z,101739.84
2023-01-29T16:12:47.358Z,101741.75
2023-01-29T16:15:18.053Z,101736.53
2023-01-29T16:17:46.376Z,101729.06
2023-01-29T16:20:36.493Z,101732.13
2023-01-29T16:23:03.518Z,101732.13
2023-01-29T16:25:34.907Z,101723.00
2023-01-29T16:28:03.506Z,101725.47
2023-01-29T16:30:29.768Z,101724.66
2023-01-29T16:33:03.352Z,101711.63
2023-01-29T16:35:29.913Z,101712.47
2023-01-29T16:37:59.355Z,101709.44
2023-01-29T16:40:27.087Z,101698.06
2023-01-29T16:43:28.497Z,101696.94
2023-01-29T16:46:17.531Z,101684.75
2023-01-29T16:48:43.917Z,101692.22
2023-01-29T16:51:14.831Z,101691.94
2023-01-29T16:53:52.723Z,101680.88
2023-01-29T16:56:21.505Z,101667.06
2023-01-29T16:58:52.345Z,101674.22
2023-01-29T17:01:19.051Z,101666.75
2023-01-29T17:03:50.633Z,101662.88
2023-01-29T17:06:23.308Z,101666.44
2023-01-29T17:08:50.756Z,101661.75
2023-01-29T17:11:25.899Z,101669.22
2023-01-29T17:13:55.003Z,101664.81
2023-01-29T17:16:49.722Z,101664.00
2023-01-29T17:19:23.640Z,101662.88
2023-01-29T17:21:50.066Z,101662.03
2023-01-29T17:24:16.414Z,101666.75
2023-01-29T17:26:42.781Z,101660.41
2023-01-29T17:29:13.532Z,101668.69
2023-01-29T17:31:39.868Z,101673.94
2023-01-29T17:34:10.401Z,101669.22
2023-01-29T17:36:36.660Z,101667.28
2023-01-29T17:39:05.996Z,101658.16
2023-01-29T17:41:33.391Z,101653.75
2023-01-29T17:43:59.845Z,101651.81
2023-01-29T17:46:27.367Z,101660.09
2023-01-29T17:48:53.672Z,101645.16
2023-01-29T17:51:20.128Z,101643.19
2023-01-29T17:53:47.309Z,101647.63
2023-01-29T17:56:18.717Z,101650.09
2023-01-29T17:58:45.064Z,101640.97
2023-01-29T18:01:11.455Z,101645.91
2023-01-29T18:03:37.963Z,101640.09
2023-01-29T18:06:06.817Z,101630.97
2023-01-29T18:08:35.312Z,101621.84
2023-01-29T18:11:01.844Z,101620.72
2023-01-29T18:13:28.650Z,101616.03
2023-01-29T18:15:54.990Z,101621.56
2023-01-29T18:18:22.654Z,101618.78
2023-01-29T18:20:49.236Z,101615.19
2023-01-29T18:23:15.836Z,101606.09
2023-01-29T18:25:45.173Z,101604.94
2023-01-29T18:28:16.276Z,101589.75
2023-01-29T18:30:44.233Z,101575.94
2023-01-29T18:33:10.907Z,101577.88
2023-01-29T18:35:37.124Z,101569.88
2023-01-29T18:38:04.323Z,101567.94
2023-01-29T18:40:31.113Z,101556.34
2023-01-29T18:43:00.271Z,101547.50
2023-01-29T18:45:29.796Z,101549.97
2023-01-29T18:47:56.120Z,101549.16
2023-01-29T18:50:26.409Z,101548.34
2023-01-29T18:52:53.237Z,101546.94
2023-01-29T18:55:19.729Z,101548.56
2023-01-29T18:58:25.067Z,101549.69
2023-01-29T19:00:32.447Z,101543.84
2023-01-29T19:02:58.731Z,101532.78
2023-01-29T19:05:25.785Z,101539.97
2023-01-29T19:07:52.357Z,101543.56
2023-01-29T19:10:18.837Z,101536.09
2023-01-29T19:12:45.112Z,101526.69
2023-01-29T19:15:11.506Z,101520.03
2023-01-29T19:17:38.491Z,101511.41
2023-01-29T19:20:05.547Z,101515.31
2023-01-29T19:22:32.670Z,101522.47
2023-01-29T19:24:58.934Z,101527.19
2023-01-29T19:27:30.088Z,101522.47
2023-01-29T19:29:57.839Z,101518.06
2023-01-29T19:32:25.470Z,101512.03
2023-01-29T19:34:52.033Z,101507.59
2023-01-29T19:37:18.817Z,101494.88
2023-01-29T19:39:45.310Z,101478.59
2023-01-29T19:42:11.579Z,101474.19
2023-01-29T19:44:39.749Z,101473.66
2023-01-29T19:47:06.019Z,101472.84
2023-01-29T19:49:34.965Z,101478.38
2023-01-29T19:52:01.583Z,101472.31
2023-01-29T19:54:29.538Z,101472.59
2023-01-29T19:56:55.969Z,101469.03
2023-01-29T19:59:23.604Z,101461.03
2023-01-29T20:01:49.887Z,101452.72
2023-01-29T20:04:16.464Z,101439.22
2023-01-29T20:06:43.777Z,101425.38
2023-01-29T20:09:10.223Z,101433.97
2023-01-29T20:11:36.638Z,101432.31
2023-01-29T20:14:02.954Z,101430.69
2023-01-29T20:16:29.297Z,101406.09
2023-01-29T20:18:55.601Z,101402.53
2023-01-29T20:21:41.764Z,101395.63
2023-01-29T20:24:12.370Z,101393.19
2023-01-29T20:26:40.301Z,101386.81
2023-01-29T20:29:06.821Z,101387.94
2023-01-29T20:31:33.758Z,101383.53
2023-01-29T20:34:00.172Z,101370.53
2023-01-29T20:36:26.417Z,101363.03
2023-01-29T20:38:52.725Z,101356.69
2023-01-29T20:41:19.442Z,101364.72
2023-01-29T20:43:47.039Z,101365.53
2023-01-29T20:46:13.655Z,101358.06
2023-01-29T20:48:41.780Z,101365.72
2023-01-29T20:51:13.726Z,101365.44
2023-01-29T20:53:41.057Z,101343.00
2023-01-29T20:56:07.819Z,101335.22
2023-01-29T20:58:34.257Z,101334.13
2023-01-29T21:01:00.630Z,101329.91
2023-01-29T21:03:27.442Z,101326.88
2023-01-29T21:05:54.352Z,101328.19
2023-01-29T21:08:20.593Z,101337.00
2023-01-29T21:10:48.867Z,101341.13
2023-01-29T21:13:15.122Z,101354.63
2023-01-29T21:15:42.076Z,101352.41
2023-01-29T21:18:08.390Z,101358.44
2023-01-29T21:20:34.693Z,101352.31
2023-01-29T21:23:05.941Z,101333.47
2023-01-29T21:25:33.383Z,101313.50
2023-01-29T21:27:59.697Z,101322.31
2023-01-29T21:30:26.931Z,101314.81
2023-01-29T21:32:53.338Z,101305.09
2023-01-29T21:35:19.816Z,101307.56
2023-01-29T21:37:46.260Z,101307.28
2023-01-29T21:40:12.735Z,101314.13
2023-01-29T21:42:57.700Z,101320.47
2023-01-29T21:45:24.036Z,101330.41
2023-01-29T21:47:50.696Z,101326.84
2023-01-29T21:50:17.408Z,101323.78
2023-01-29T21:52:43.985Z,101334.53
2023-01-29T21:55:10.208Z,101343.66
2023-01-29T21:57:36.446Z,101341.72
2023-01-29T22:00:05.340Z,101333.94
2023-01-29T22:02:32.069Z,101343.88
2023-01-29T22:05:12.435Z,101338.03
2023-01-29T22:07:44.383Z,101329.41
2023-01-29T22:10:11.142Z,101328.31
2023-01-29T22:12:37.605Z,101317.25
2023-01-29T22:15:04.711Z,101322.47
2023-01-29T22:17:31.040Z,101326.84
2023-01-29T22:19:57.491Z,101337.63
2023-01-29T22:22:23.768Z,101340.38
2023-01-29T22:24:50.783Z,101326.25
2023-01-29T22:27:17.199Z,101329.03
2023-01-29T22:29:43.715Z,101320.41
2023-01-29T22:32:10.340Z,101335.06
2023-01-29T22:34:36.580Z,101323.19
2023-01-29T22:37:03.369Z,101307.09
2023-01-29T22:39:29.702Z,101300.44
2023-01-29T22:41:55.971Z,101313.47
2023-01-29T22:44:22.258Z,101313.63
2023-01-29T22:46:49.152Z,101308.94
2023-01-29T22:49:17.926Z,101300.63
2023-01-29T22:51:44.325Z,101284.00
2023-01-29T22:54:11.114Z,101281.78
2023-01-29T22:56:37.415Z,101258.00
2023-01-29T22:59:04.052Z,101258.50
2023-01-29T23:01:31.419Z,101239.13
2023-01-29T23:03:57.813Z,101219.41
2023-01-29T23:06:24.059Z,101220.25
2023-01-29T23:08:50.591Z,101196.44
2023-01-29T23:11:20.500Z,101198.13
2023-01-29T23:13:48.277Z,101183.44
2023-01-29T23:16:15.826Z,101156.59
2023-01-29T23:18:42.600Z,101154.31
2023-01-29T23:21:08.907Z,101122.72
2023-01-29T23:23:36.191Z,101093.09
2023-01-29T23:26:22.673Z,101112.47
2023-01-29T23:28:49.179Z,101126.31
2023-01-29T23:31:16.059Z,101135.16
2023-01-29T23:33:42.319Z,101168.88
2023-01-29T23:36:09.109Z,101155.84
2023-01-29T23:38:35.374Z,101153.59
2023-01-29T23:41:01.761Z,101150.19
2023-01-29T23:43:28.367Z,101149.88
2023-01-29T23:45:55.014Z,101130.19
2023-01-29T23:48:21.632Z,101119.59
2023-01-29T23:50:48.321Z,101111.81
2023-01-29T23:53:14.868Z,101113.44
2023-01-29T23:55:41.413Z,101111.19
2023-01-29T23:58:07.869Z,101097.03
